Time;durP1;ratioP1;P1;durP2;ratioP2;P2;SDS_P1;SDS_P2;PMS_P1;PMS_P2;Temp;Humidity;BMP_temperature;BMP_pressure;BME280_temperature;BME280_humidity;BME280_pressure;Samples;Min_cycle;Max_cycle;Signal;HPM_P1;HPM_P2
2021/07/24 06:02:36;;;;;;;29.80;19.87;;;;;;;21.15;74.97;100328.55;1713782;83;28089;-66
2021/07/24 06:05:05;;;;;;;29.32;20.62;;;;;;;21.42;74.37;100325.81;1714364;83;27565;-66
2021/07/24 06:07:32;;;;;;;29.77;20.43;;;;;;;21.60;73.39;100327.32;1714508;83;25832;-65
2021/07/24 06:09:58;;;;;;;23.25;18.92;;;;;;;21.76;72.71;100324.86;1684253;85;25743;-66
2021/07/24 06:12:25;;;;;;;27.62;17.95;;;;;;;21.91;72.02;100318.85;1684489;85;25712;-65
2021/07/24 06:14:51;;;;;;;26.62;18.57;;;;;;;22.06;71.19;100323.25;1696510;83;27546;-65
2021/07/24 06:17:17;;;;;;;27.98;24.70;;;;;;;22.20;70.44;100326.08;1684196;85;25790;-66
2021/07/24 06:19:43;;;;;;;29.87;18.40;;;;;;;22.32;70.00;100321.41;1632390;86;26055;-66
2021/07/24 06:22:09;;;;;;;23.57;17.23;;;;;;;22.48;69.27;100322.47;1696411;84;25704;-66
2021/07/24 06:24:36;;;;;;;25.40;17.65;;;;;;;22.66;69.44;100314.22;1684361;85;25736;-65
2021/07/24 06:27:04;;;;;;;61.02;55.98;;;;;;;22.86;68.81;100316.81;1687547;85;27553;-65
2021/07/24 06:29:30;;;;;;;22.25;16.85;;;;;;;23.07;68.61;100318.84;1694370;84;25679;-66
2021/07/24 06:31:56;;;;;;;22.90;16.67;;;;;;;23.26;68.27;100317.66;1694342;84;25813;-65
2021/07/24 06:34:22;;;;;;;87.08;81.05;;;;;;;23.46;67.85;100314.47;1685607;84;26439;-66
2021/07/24 06:36:49;;;;;;;27.25;15.30;;;;;;;23.68;67.67;100313.84;1684700;85;26270;-66
2021/07/24 06:39:15;;;;;;;21.73;15.83;;;;;;;23.94;67.31;100318.15;1684489;85;27477;-66
2021/07/24 06:41:42;;;;;;;25.02;15.90;;;;;;;24.17;66.55;100310.74;1684714;85;25881;-66
2021/07/24 06:44:09;;;;;;;85.92;79.87;;;;;;;24.39;65.41;100313.41;1684716;85;26002;-66
2021/07/24 06:46:35;;;;;;;86.63;80.85;;;;;;;24.50;64.75;100306.43;1684514;85;27741;-66
2021/07/24 06:49:01;;;;;;;84.03;78.42;;;;;;;24.70;64.05;100310.28;1684777;85;25762;-63
2021/07/24 06:51:28;;;;;;;37.88;34.58;;;;;;;24.92;63.37;100312.30;1684607;85;27604;-65
2021/07/24 06:53:54;;;;;;;20.08;15.60;;;;;;;25.14;63.31;100318.45;1684483;85;25902;-65
2021/07/24 06:56:20;;;;;;;18.45;14.50;;;;;;;25.40;62.82;100320.42;1684708;85;25804;-65
2021/07/24 06:58:47;;;;;;;20.80;14.58;;;;;;;25.62;62.36;100315.46;1684726;84;27738;-65
2021/07/24 07:01:13;;;;;;;19.92;14.60;;;;;;;25.85;61.93;100310.67;1683935;85;25729;-65
2021/07/24 07:03:40;;;;;;;20.27;13.70;;;;;;;26.09;61.14;100308.05;1684373;85;29811;-65
2021/07/24 07:06:07;;;;;;;20.23;13.60;;;;;;;26.25;59.66;100308.21;1683137;85;26218;-65
2021/07/24 07:08:34;;;;;;;18.90;14.28;;;;;;;26.42;59.29;100306.41;1683029;85;25926;-64
2021/07/24 07:11:03;;;;;;;19.60;13.95;;;;;;;26.65;58.88;100313.27;1683252;85;25722;-64
2021/07/24 07:13:30;;;;;;;20.05;14.15;;;;;;;26.85;58.21;100314.72;1719362;83;25749;-65
2021/07/24 07:15:57;;;;;;;22.93;14.35;;;;;;;27.04;57.64;100317.41;1753228;81;29768;-65
2021/07/24 07:18:24;;;;;;;15.75;12.28;;;;;;;27.25;57.52;100316.88;1711329;83;25754;-65
2021/07/24 07:20:51;;;;;;;19.12;13.95;;;;;;;27.36;54.94;100323.03;1717633;83;25728;-65
2021/07/24 07:23:19;;;;;;;19.10;14.20;;;;;;;27.49;54.92;100323.22;1717477;83;26163;-65
2021/07/24 07:25:45;;;;;;;13.83;11.50;;;;;;;27.68;54.36;100322.45;1743033;82;25780;-65
2021/07/24 07:28:12;;;;;;;15.08;12.68;;;;;;;27.84;52.93;100323.73;1717773;83;27607;-65
2021/07/24 07:30:38;;;;;;;18.27;12.35;;;;;;;27.93;52.31;100319.22;1717427;83;25695;-65
2021/07/24 07:33:05;;;;;;;15.08;11.95;;;;;;;28.03;52.33;100320.22;1717671;83;25763;-65
2021/07/24 07:35:31;;;;;;;17.15;13.18;;;;;;;28.18;51.29;100316.54;1742932;82;26436;-65
2021/07/24 07:38:00;;;;;;;18.02;12.58;;;;;;;28.29;51.23;100319.08;1742798;82;25639;-64
2021/07/24 07:40:27;;;;;;;13.70;12.30;;;;;;;28.42;50.68;100320.61;1743144;82;27452;-65
2021/07/24 07:42:53;;;;;;;16.17;12.53;;;;;;;28.58;50.38;100326.20;1717623;83;26370;-65
2021/07/24 07:45:20;;;;;;;20.25;12.15;;;;;;;28.78;50.44;100328.94;1717535;83;25784;-65
2021/07/24 07:47:46;;;;;;;18.23;11.93;;;;;;;29.07;50.12;100333.81;1717615;83;25730;-65
2021/07/24 07:50:12;;;;;;;19.52;12.23;;;;;;;29.30;49.63;100341.21;1743068;82;25693;-65
2021/07/24 07:52:39;;;;;;;17.80;11.88;;;;;;;29.57;49.23;100340.12;1718915;83;27570;-65
2021/07/24 07:55:07;;;;;;;16.45;12.03;;;;;;;29.69;48.57;100332.42;1717673;83;26907;-65
2021/07/24 07:57:33;;;;;;;17.95;12.50;;;;;;;29.93;48.31;100337.19;1717873;83;25836;-65
2021/07/24 08:00:00;;;;;;;17.02;11.22;;;;;;;30.15;47.82;100337.35;1742621;82;26383;-65
2021/07/24 08:02:27;;;;;;;17.62;11.33;;;;;;;30.39;47.68;100330.70;1744567;81;25938;-65
2021/07/24 08:04:53;;;;;;;17.20;11.88;;;;;;;30.53;45.90;100335.86;1713973;83;27694;-65
2021/07/24 08:07:20;;;;;;;16.57;12.00;;;;;;;30.53;45.85;100340.05;1713934;83;26365;-65
2021/07/24 08:09:46;;;;;;;15.58;11.33;;;;;;;30.48;45.29;100335.02;1709409;83;25789;-65
2021/07/24 08:12:12;;;;;;;16.87;10.65;;;;;;;30.70;45.76;100331.72;1709482;83;25736;-65
2021/07/24 08:14:38;;;;;;;14.28;10.32;;;;;;;30.80;44.62;100339.59;1686863;83;25806;-65
2021/07/24 08:17:08;;;;;;;15.32;10.05;;;;;;;30.68;44.17;100345.35;1709498;83;27473;-65
2021/07/24 08:19:35;;;;;;;13.28;10.05;;;;;;;30.48;43.58;100347.58;1709297;83;27378;-65
2021/07/24 08:22:03;;;;;;;12.50;10.20;;;;;;;30.13;43.49;100341.17;1709230;83;25764;-66
2021/07/24 08:24:29;;;;;;;19.60;17.85;;;;;;;29.86;43.71;100341.55;1709414;83;25707;-65
2021/07/24 08:26:56;;;;;;;26.75;19.05;;;;;;;29.74;44.16;100348.61;1709556;83;25712;-65
2021/07/24 08:29:22;;;;;;;15.30;11.80;;;;;;;29.63;44.09;100336.98;1709371;83;28153;-65
2021/07/24 08:31:49;;;;;;;14.25;11.40;;;;;;;29.50;42.86;100338.31;1707801;83;25861;-65
2021/07/24 08:34:15;;;;;;;12.85;10.75;;;;;;;29.43;43.13;100341.29;1709448;83;25673;-65
2021/07/24 08:36:41;;;;;;;13.05;10.10;;;;;;;29.39;42.94;100343.40;1686844;83;25927;-65
2021/07/24 08:39:08;;;;;;;11.88;9.70;;;;;;;29.46;44.03;100343.20;1709399;83;25680;-65
2021/07/24 08:41:41;;;;;;;11.75;9.90;;;;;;;29.79;43.45;100339.73;1709542;83;27433;-66
2021/07/24 08:44:13;;;;;;;14.55;9.95;;;;;;;30.14;43.20;100334.38;1709280;83;25774;-65
2021/07/24 08:46:40;;;;;;;12.53;10.43;;;;;;;30.27;42.76;100336.41;1709538;83;25674;-66
2021/07/24 08:49:07;;;;;;;15.55;10.63;;;;;;;30.27;42.74;100337.17;1709452;83;27689;-66
2021/07/24 08:51:37;;;;;;;14.95;10.75;;;;;;;30.21;42.46;100334.02;1686727;83;25817;-66
2021/07/24 08:54:07;;;;;;;66.82;62.65;;;;;;;30.08;42.11;100337.53;1709502;83;27541;-66
2021/07/24 08:56:44;;;;;;;57.08;53.20;;;;;;;29.83;41.80;100332.70;1687124;83;25765;-64
2021/07/24 08:59:11;;;;;;;14.45;10.13;;;;;;;29.62;41.91;100332.63;1708560;83;25972;-64
2021/07/24 09:01:41;;;;;;;12.82;10.68;;;;;;;29.39;42.11;100338.60;1709352;83;27330;-64
2021/07/24 09:04:08;;;;;;;14.38;10.60;;;;;;;29.21;42.29;100336.26;1709567;83;25738;-64
2021/07/24 09:06:34;;;;;;;16.62;10.82;;;;;;;29.05;41.78;100332.86;1708394;83;29680;-63
2021/07/24 09:09:01;;;;;;;12.33;10.50;;;;;;;28.91;42.47;100331.02;1708765;83;25692;-63
2021/07/24 09:11:28;;;;;;;13.60;10.03;;;;;;;28.77;42.82;100333.54;1709535;83;25659;-63
2021/07/24 09:13:55;;;;;;;12.90;9.80;;;;;;;28.60;42.23;100333.51;1709079;83;25988;-63
2021/07/24 09:16:25;;;;;;;15.32;10.30;;;;;;;28.35;42.38;100329.08;1709513;83;25697;-63
2021/07/24 09:18:53;;;;;;;16.90;10.65;;;;;;;28.18;42.54;100337.98;1709439;83;27467;-63
2021/07/24 09:21:20;;;;;;;11.77;9.97;;;;;;;28.02;42.86;100333.92;1709306;83;25743;-63
2021/07/24 09:23:48;;;;;;;16.55;10.72;;;;;;;27.83;42.95;100334.69;1709433;83;26364;-64
2021/07/24 09:26:36;;;;;;;11.90;9.93;;;;;;;27.68;43.17;100332.17;1709401;83;25997;-63
2021/07/24 09:29:14;;;;;;;72.22;67.90;;;;;;;27.61;43.45;100324.59;1709357;83;25701;-64
2021/07/24 09:31:43;;;;;;;14.45;10.50;;;;;;;27.65;43.73;100318.35;1709529;83;27461;-63
2021/07/24 09:34:13;;;;;;;75.83;70.85;;;;;;;27.72;43.45;100321.79;1709438;83;25782;-63
2021/07/24 09:36:41;;;;;;;76.22;71.67;;;;;;;27.82;43.36;100326.16;1709206;83;25684;-63
2021/07/24 09:39:15;;;;;;;78.92;73.62;;;;;;;27.92;43.21;100329.36;1709438;83;25834;-63
2021/07/24 09:41:45;;;;;;;79.42;74.53;;;;;;;27.89;43.09;100327.41;1709461;83;25846;-64
2021/07/24 09:44:29;;;;;;;77.08;72.17;;;;;;;27.92;43.10;100321.83;1708757;83;28212;-64
2021/07/24 09:46:58;;;;;;;75.05;70.22;;;;;;;28.11;43.93;100316.66;1709424;83;26129;-64
2021/07/24 09:49:38;;;;;;;75.67;70.87;;;;;;;28.32;43.68;100311.27;1709510;83;25762;-64
2021/07/24 09:52:15;;;;;;;75.87;70.08;;;;;;;28.47;43.36;100308.97;1709416;83;25691;-64
2021/07/24 09:54:42;;;;;;;77.62;72.67;;;;;;;28.61;43.81;100308.66;1687025;83;25817;-65
2021/07/24 09:57:09;;;;;;;79.55;74.65;;;;;;;28.76;43.92;100309.11;1709285;83;27566;-64
2021/07/24 09:59:36;;;;;;;78.83;73.57;;;;;;;29.00;43.65;100313.12;1709205;83;25891;-63
2021/07/24 10:02:13;;;;;;;74.17;69.60;;;;;;;29.23;43.29;100307.98;1709311;83;25732;-64
2021/07/24 10:04:39;;;;;;;76.30;71.60;;;;;;;29.41;42.83;100306.13;1707628;83;26285;-64
2021/07/24 10:07:09;;;;;;;72.75;68.15;;;;;;;29.52;42.57;100307.23;1709474;83;26075;-65
2021/07/24 10:09:38;;;;;;;74.67;69.70;;;;;;;29.67;42.53;100307.63;1709423;83;28096;-64
2021/07/24 10:12:09;;;;;;;76.20;71.50;;;;;;;29.87;42.25;100303.32;1708147;83;26278;-64
2021/07/24 10:14:37;;;;;;;75.25;70.42;;;;;;;29.96;42.16;100304.22;1709836;83;25552;-64
2021/07/24 10:17:04;;;;;;;76.47;70.30;;;;;;;30.11;42.43;100301.02;1709969;83;25570;-64
2021/07/24 10:19:30;;;;;;;81.97;76.02;;;;;;;30.16;41.75;100306.83;1709050;83;25714;-64
2021/07/24 10:21:59;;;;;;;75.90;71.12;;;;;;;30.07;41.96;100299.73;1709597;83;27633;-65
2021/07/24 10:24:26;;;;;;;72.27;66.60;;;;;;;29.94;41.71;100307.30;1709574;83;26317;-65
2021/07/24 10:27:05;;;;;;;52.85;49.08;;;;;;;29.79;41.67;100302.73;1709759;83;25751;-65
2021/07/24 10:29:35;;;;;;;13.93;11.07;;;;;;;29.64;41.61;100307.87;1709977;83;26163;-65
2021/07/24 10:32:10;;;;;;;17.92;10.88;;;;;;;29.47;41.96;100309.16;1709817;83;25773;-65
2021/07/24 10:34:49;;;;;;;74.47;69.77;;;;;;;29.31;42.40;100305.80;1709820;83;28125;-65
2021/07/24 10:37:42;;;;;;;76.60;71.77;;;;;;;29.11;42.25;100306.66;1709787;83;25787;-65
2021/07/24 10:40:25;;;;;;;33.08;29.92;;;;;;;28.90;42.45;100307.98;1709656;83;25927;-65
2021/07/24 10:42:53;;;;;;;13.55;11.25;;;;;;;28.76;42.67;100309.70;1709859;83;25719;-64
2021/07/24 10:45:37;;;;;;;14.93;11.43;;;;;;;28.59;42.96;100304.14;1710026;83;25771;-65
2021/07/24 10:48:22;;;;;;;14.33;10.38;;;;;;;28.45;42.97;100306.61;1709782;83;27495;-64
2021/07/24 10:51:00;;;;;;;17.05;11.08;;;;;;;28.28;43.23;100296.64;1709682;83;25834;-63
2021/07/24 10:53:29;;;;;;;13.60;10.65;;;;;;;28.18;43.99;100302.64;1710065;83;25815;-67
2021/07/24 10:59:16;;;;;;;17.60;10.78;;;;;;;28.07;44.84;100300.68;1885769;76;25718;-67
2021/07/24 11:01:52;;;;;;;17.77;11.03;;;;;;;27.96;44.97;100295.36;1856878;77;25742;-65
2021/07/24 11:04:43;;;;;;;15.23;10.55;;;;;;;27.88;45.03;100291.89;1856803;77;27525;-65
2021/07/24 11:07:24;;;;;;;15.88;12.23;;;;;;;27.86;45.63;100287.98;1856697;77;25590;-64
2021/07/24 11:09:59;;;;;;;15.45;11.15;;;;;;;27.86;45.84;100287.98;1786767;80;25706;-65
2021/07/24 11:12:39;;;;;;;15.83;10.98;;;;;;;27.89;46.12;100292.66;1785816;80;25786;-65
2021/07/24 11:15:09;;;;;;;19.25;11.70;;;;;;;27.93;46.18;100293.42;1787170;78;25803;-66
2021/07/24 11:17:35;;;;;;;13.28;10.72;;;;;;;27.92;46.06;100282.12;1819009;78;27571;-65
2021/07/24 11:20:08;;;;;;;12.68;11.12;;;;;;;27.94;46.18;100285.25;1786645;80;26231;-66
2021/07/24 11:22:56;;;;;;;15.72;10.82;;;;;;;27.99;46.21;100279.19;1786808;80;25675;-66
2021/07/24 11:25:30;;;;;;;17.05;11.45;;;;;;;28.12;46.44;100285.66;1756024;80;25769;-66
2021/07/24 11:27:56;;;;;;;15.78;11.78;;;;;;;28.26;45.51;100279.00;1786771;80;25815;-66
2021/07/24 11:30:26;;;;;;;13.45;10.25;;;;;;;28.34;45.15;100278.86;1786699;80;29702;-67
2021/07/24 11:32:57;;;;;;;20.15;14.38;;;;;;;28.39;44.97;100283.30;1786709;80;25619;-70
2021/07/24 11:35:30;;;;;;;14.60;11.63;;;;;;;28.47;44.86;100281.15;1786714;80;25632;-65
2021/07/24 11:37:59;;;;;;;14.07;11.43;;;;;;;28.46;44.67;100282.35;1786711;80;26402;-65
2021/07/24 11:40:28;;;;;;;14.80;11.65;;;;;;;28.46;44.68;100281.73;1786828;80;30715;-66
2021/07/24 11:43:07;;;;;;;15.50;11.57;;;;;;;28.46;44.59;100289.31;1786624;79;27475;-65
2021/07/24 11:45:36;;;;;;;16.32;12.13;;;;;;;28.45;44.45;100289.12;1776559;80;25732;-65
2021/07/24 11:48:10;;;;;;;14.93;11.15;;;;;;;28.46;44.44;100294.87;1780315;80;25747;-66
2021/07/24 11:50:38;;;;;;;14.53;10.80;;;;;;;28.43;44.19;100296.50;1780624;80;25799;-66
2021/07/24 11:53:04;;;;;;;14.07;10.98;;;;;;;28.43;43.87;100296.50;1780678;80;25751;-66
2021/07/24 11:55:34;;;;;;;13.00;11.60;;;;;;;28.38;43.58;100287.28;1780631;80;28097;-65
2021/07/24 11:58:06;;;;;;;14.53;10.90;;;;;;;28.36;43.55;100284.16;1780462;80;25743;-64
2021/07/24 12:00:38;;;;;;;14.10;10.53;;;;;;;28.42;43.71;100288.62;1780621;80;25691;-66
2021/07/24 12:03:24;;;;;;;13.20;10.78;;;;;;;28.74;44.42;100285.70;1780606;80;25738;-63
2021/07/24 12:05:59;;;;;;;13.22;10.48;;;;;;;29.15;43.53;100294.03;1780703;80;26407;-62
2021/07/24 12:08:28;;;;;;;11.95;10.72;;;;;;;29.32;42.74;100287.85;1771160;80;27503;-64
2021/07/24 12:10:56;;;;;;;13.88;11.10;;;;;;;29.37;42.07;100282.55;1747604;80;25751;-64
2021/07/24 12:13:27;;;;;;;12.53;9.37;;;;;;;29.43;42.18;100288.36;1780324;80;25627;-64
2021/07/24 12:16:05;;;;;;;12.58;9.78;;;;;;;29.47;41.87;100277.89;1780075;80;25721;-64
2021/07/24 12:18:48;;;;;;;12.90;10.17;;;;;;;29.73;42.06;100298.28;1780349;80;25989;-65
2021/07/24 12:21:31;;;;;;;12.60;9.83;;;;;;;29.73;42.06;100298.28;1780045;80;27537;-64
2021/07/24 12:24:02;;;;;;;12.80;10.78;;;;;;;29.72;41.25;100278.59;1780001;80;25703;-64
2021/07/24 12:26:35;;;;;;;51.08;33.15;;;;;;;29.74;41.09;100278.16;1780091;80;25834;-64
2021/07/24 12:29:13;;;;;;;13.45;10.65;;;;;;;29.71;41.09;100278.44;1779033;80;25659;-65
2021/07/24 12:31:50;;;;;;;22.32;10.95;;;;;;;29.69;40.93;100271.11;1778419;80;25712;-64
2021/07/24 12:34:22;;;;;;;11.18;9.98;;;;;;;29.67;41.00;100269.38;1780056;80;29688;-64
2021/07/24 12:37:01;;;;;;;16.07;10.13;;;;;;;29.69;41.00;100269.72;1779969;80;26358;-65
2021/07/24 12:39:33;;;;;;;14.43;10.30;;;;;;;29.67;40.94;100263.81;1775840;80;25669;-65
2021/07/24 12:42:05;;;;;;;12.15;10.60;;;;;;;29.70;41.13;100267.73;1779964;80;25688;-65
2021/07/24 12:44:52;;;;;;;15.32;10.53;;;;;;;29.62;40.83;100273.48;1780075;80;25705;-66
2021/07/24 12:47:20;;;;;;;14.03;10.55;;;;;;;29.57;40.85;100267.06;1780049;80;27555;-63
2021/07/24 12:49:49;;;;;;;12.28;10.40;;;;;;;29.58;41.01;100268.63;1780171;80;26414;-64
2021/07/24 12:52:31;;;;;;;13.95;10.20;;;;;;;29.52;40.83;100271.78;1779484;80;25763;-63
2021/07/24 12:55:19;;;;;;;12.75;10.38;;;;;;;29.51;41.06;100268.84;1780014;80;26032;-64
2021/07/24 12:58:03;;;;;;;11.63;9.63;;;;;;;29.58;41.73;100263.06;1690050;84;25726;-64
2021/07/24 13:00:32;;;;;;;13.32;9.50;;;;;;;29.62;41.99;100265.75;1692194;84;27699;-65
2021/07/24 13:02:58;;;;;;;12.40;9.63;;;;;;;29.74;41.18;100268.40;1692293;84;25546;-65
2021/07/24 13:05:25;;;;;;;12.58;9.98;;;;;;;29.80;40.65;100264.66;1692215;84;25861;-66
2021/07/24 13:07:53;;;;;;;11.25;10.08;;;;;;;29.91;40.63;100264.95;1692150;84;25968;-66
2021/07/24 13:10:19;;;;;;;11.47;9.77;;;;;;;30.07;40.55;100254.32;1692517;84;26539;-65
2021/07/24 13:12:46;;;;;;;11.50;10.18;;;;;;;30.29;40.50;100253.05;1692252;84;29735;-65
2021/07/24 13:15:13;;;;;;;10.95;9.85;;;;;;;30.62;40.43;100250.06;1692128;84;26219;-64
2021/07/24 13:17:39;;;;;;;12.93;9.48;;;;;;;30.94;40.39;100249.03;1692208;84;25983;-64
2021/07/24 13:20:07;;;;;;;14.25;9.38;;;;;;;31.18;40.08;100250.79;1692094;84;25855;-66
2021/07/24 13:22:33;;;;;;;14.68;10.20;;;;;;;31.53;40.04;100257.75;1692290;84;25826;-64
2021/07/24 13:25:09;;;;;;;11.08;9.78;;;;;;;31.72;38.83;100255.08;1692184;84;27494;-66
2021/07/24 13:30:20;;;;;;;38.55;15.32;;;;;;;32.31;37.82;100246.23;1685723;84;25869;-65
2021/07/24 13:32:48;;;;;;;11.50;10.30;;;;;;;32.65;37.00;100247.30;1683541;85;25834;-66
2021/07/24 13:35:16;;;;;;;13.03;9.85;;;;;;;32.81;36.63;100240.66;1734482;80;25797;-67
2021/07/24 13:37:42;;;;;;;11.68;9.10;;;;;;;32.98;35.88;100245.95;1775249;80;27451;-65
2021/07/24 13:40:10;;;;;;;10.35;9.35;;;;;;;33.24;36.09;100240.87;1775287;80;25740;-64
2021/07/24 13:42:38;;;;;;;14.15;9.65;;;;;;;33.47;35.42;100248.61;1791593;80;25810;-65
2021/07/24 13:45:06;;;;;;;12.93;9.25;;;;;;;33.53;34.72;100243.77;1793630;80;25628;-65
2021/07/24 13:47:33;;;;;;;13.60;9.10;;;;;;;33.63;34.29;100247.52;1793818;80;25726;-65
2021/07/24 13:50:00;;;;;;;11.05;9.00;;;;;;;33.68;33.97;100249.72;1793540;80;27500;-65
2021/07/24 13:52:27;;;;;;;11.80;9.03;;;;;;;33.75;33.40;100246.41;1793547;80;25712;-65
2021/07/24 13:54:53;;;;;;;9.63;8.63;;;;;;;33.75;33.40;100246.41;1775497;80;25643;-65
2021/07/24 13:57:19;;;;;;;12.55;8.55;;;;;;;33.71;32.59;100247.98;1782495;80;25754;-64
2021/07/24 13:59:46;;;;;;;10.20;9.18;;;;;;;33.69;32.77;100253.29;1791936;80;25709;-65
2021/07/24 14:02:13;;;;;;;17.65;8.55;;;;;;;33.62;32.47;100247.98;1727779;83;28480;-65
2021/07/24 14:04:40;;;;;;;10.35;8.93;;;;;;;33.50;32.09;100243.47;1757783;81;27387;-64
2021/07/24 14:07:09;;;;;;;10.30;9.00;;;;;;;33.28;32.43;100245.69;1757905;81;26156;-63
2021/07/24 14:09:36;;;;;;;12.35;8.90;;;;;;;33.26;33.08;100248.95;1757893;81;25890;-64
2021/07/24 14:12:05;;;;;;;15.80;9.40;;;;;;;33.35;32.96;100248.16;1771785;80;25730;-65
2021/07/24 14:14:32;;;;;;;10.08;9.03;;;;;;;33.34;32.13;100251.43;1788544;80;28331;-65
2021/07/24 14:16:59;;;;;;;12.82;9.25;;;;;;;33.31;32.14;100253.16;1770501;80;26026;-66
2021/07/24 14:19:25;;;;;;;11.88;8.45;;;;;;;33.33;31.84;100245.69;1745536;82;25699;-65
2021/07/24 14:21:52;;;;;;;14.95;9.25;;;;;;;33.31;31.79;100242.72;1739735;82;26332;-65
2021/07/24 14:24:18;;;;;;;10.28;8.58;;;;;;;33.33;31.79;100242.25;1739759;82;25684;-64
2021/07/24 14:26:44;;;;;;;8.73;7.80;;;;;;;33.40;31.79;100248.94;1739790;82;27541;-65
2021/07/24 14:29:13;;;;;;;11.48;8.75;;;;;;;33.42;31.96;100243.63;1739683;82;25750;-65
2021/07/24 14:31:43;;;;;;;9.45;8.45;;;;;;;33.45;31.56;100246.14;1739762;82;25640;-65
2021/07/24 14:34:09;;;;;;;9.25;8.28;;;;;;;33.46;31.59;100244.91;1739663;82;25675;-66
2021/07/24 14:36:36;;;;;;;14.55;8.78;;;;;;;33.44;31.24;100243.97;1739788;82;25644;-66
2021/07/24 14:39:03;;;;;;;11.65;8.65;;;;;;;33.38;31.55;100241.63;1739965;82;28421;-66
2021/07/24 14:41:30;;;;;;;18.27;14.35;;;;;;;33.30;31.73;100241.15;1739774;82;25657;-65
2021/07/24 14:43:56;;;;;;;10.88;9.78;;;;;;;33.24;31.88;100239.47;1739756;82;25699;-65
2021/07/24 14:46:23;;;;;;;11.43;9.25;;;;;;;33.21;31.78;100245.38;1739698;82;25858;-65
2021/07/24 14:48:49;;;;;;;10.68;9.25;;;;;;;33.18;31.96;100242.09;1739808;82;25710;-66
2021/07/24 14:51:18;;;;;;;10.10;8.43;;;;;;;33.17;31.72;100239.76;1739781;82;27674;-66
2021/07/24 14:53:45;;;;;;;12.00;8.65;;;;;;;33.07;31.50;100234.14;1711827;82;25700;-66
2021/07/24 14:56:17;;;;;;;12.95;8.38;;;;;;;33.04;31.64;100235.06;1739858;82;25714;-66
2021/07/24 14:58:46;;;;;;;10.68;9.05;;;;;;;33.00;31.23;100234.45;1746252;81;25699;-66
2021/07/24 15:01:15;;;;;;;11.10;9.00;;;;;;;32.91;31.34;100236.63;1754868;81;25701;-66
2021/07/24 15:03:42;;;;;;;;;;;;;;;32.79;31.45;100241.72;1757857;81;27345;-65
2021/07/24 15:06:10;;;;;;;12.50;8.83;;;;;;;32.74;31.32;100236.73;1755199;81;25748;-65
2021/07/24 15:08:37;;;;;;;;;;;;;;;32.57;31.51;100236.20;1766079;81;25705;-66
2021/07/24 15:11:06;;;;;;;15.20;9.13;;;;;;;32.32;31.25;100232.42;1769242;81;25740;-66
2021/07/24 15:13:34;;;;;;;14.43;9.93;;;;;;;32.09;31.19;100241.34;1769285;81;25767;-66
2021/07/24 15:16:01;;;;;;;11.90;9.23;;;;;;;31.83;31.72;100233.87;1769423;81;28324;-65
2021/07/24 15:18:29;;;;;;;10.90;9.85;;;;;;;31.70;31.75;100228.20;1756843;81;25651;-65
2021/07/24 15:20:57;;;;;;;12.40;9.08;;;;;;;31.52;32.22;100238.05;1756495;81;25668;-65
2021/07/24 15:23:23;;;;;;;14.45;10.18;;;;;;;31.37;32.59;100234.17;1757827;81;26458;-65
2021/07/24 15:25:50;;;;;;;12.90;9.55;;;;;;;31.20;32.82;100234.34;1789117;80;25771;-66
2021/07/24 15:28:18;;;;;;;15.70;9.50;;;;;;;31.05;33.25;100232.67;1789036;80;27474;-66
2021/07/24 15:30:44;;;;;;;19.10;15.03;;;;;;;30.91;33.47;100231.75;1788977;80;25512;-66
2021/07/24 15:33:12;;;;;;;11.75;9.55;;;;;;;30.77;33.84;100229.42;1789156;80;25720;-65
2021/07/24 15:35:42;;;;;;;17.15;14.40;;;;;;;30.68;33.91;100231.51;1761050;80;25951;-65
2021/07/24 15:38:08;;;;;;;12.10;9.88;;;;;;;30.56;34.12;100231.69;1789061;80;25619;-65
2021/07/24 15:40:35;;;;;;;11.50;9.85;;;;;;;30.39;34.37;100228.88;1789050;80;27478;-65
2021/07/24 15:43:01;;;;;;;13.32;9.65;;;;;;;30.30;34.78;100223.31;1788966;80;25661;-65
2021/07/24 15:45:27;;;;;;;12.37;10.15;;;;;;;30.20;35.15;100220.25;1789237;80;25683;-66
2021/07/24 15:47:54;;;;;;;11.95;9.90;;;;;;;30.11;35.43;100213.95;1760548;80;25715;-66
2021/07/24 15:50:20;;;;;;;13.65;9.65;;;;;;;30.04;35.50;100215.58;1789175;80;25691;-65
2021/07/24 15:52:47;;;;;;;15.38;9.85;;;;;;;29.90;35.55;100215.98;1789227;80;27672;-66
2021/07/24 15:55:14;;;;;;;12.20;9.70;;;;;;;29.80;35.69;100211.70;1789086;80;25979;-65
2021/07/24 15:57:41;;;;;;;11.38;9.28;;;;;;;29.71;35.72;100216.33;1789239;80;26280;-65
2021/07/24 16:00:09;;;;;;;18.23;10.63;;;;;;;29.58;35.63;100219.09;1756010;80;25769;-65
2021/07/24 16:02:35;;;;;;;14.10;10.50;;;;;;;29.49;36.17;100216.16;1786328;80;25715;-65
2021/07/24 16:05:03;;;;;;;14.80;10.93;;;;;;;29.40;36.38;100214.02;1818507;78;27545;-64
2021/07/24 16:07:29;;;;;;;15.28;10.38;;;;;;;29.31;36.72;100211.88;1755657;80;25889;-64
2021/07/24 16:09:56;;;;;;;15.90;10.25;;;;;;;29.22;36.86;100218.70;1818346;78;25660;-64
2021/07/24 16:12:22;;;;;;;13.83;10.25;;;;;;;29.12;36.91;100215.57;1755345;80;27735;-65
2021/07/24 16:14:49;;;;;;;13.22;10.05;;;;;;;28.99;36.71;100214.88;1755426;80;25713;-64
2021/07/24 16:17:18;;;;;;;14.10;10.58;;;;;;;28.85;36.77;100213.87;1785968;80;27449;-66
2021/07/24 16:19:46;;;;;;;14.38;10.75;;;;;;;28.72;36.81;100216.56;1818253;78;25787;-65
2021/07/24 16:22:13;;;;;;;17.60;11.50;;;;;;;28.56;36.89;100213.19;1786219;80;25765;-65
2021/07/24 16:24:39;;;;;;;13.32;10.93;;;;;;;28.45;37.43;100212.63;1818281;78;25675;-65
2021/07/24 16:27:05;;;;;;;16.07;11.73;;;;;;;28.36;37.61;100206.90;1786135;80;25841;-65
2021/07/24 16:29:32;;;;;;;35.50;26.52;;;;;;;28.24;37.99;100206.36;1818368;78;29720;-66
2021/07/24 16:31:58;;;;;;;14.95;10.30;;;;;;;28.17;38.11;100207.14;1785967;80;25651;-65
2021/07/24 16:34:24;;;;;;;12.85;10.28;;;;;;;28.10;38.83;100198.36;1818399;78;25711;-65
2021/07/24 16:36:51;;;;;;;12.47;10.88;;;;;;;28.03;39.38;100194.36;1786020;80;26386;-65
2021/07/24 16:39:17;;;;;;;13.48;10.10;;;;;;;27.98;39.80;100194.86;1818292;78;25659;-68
2021/07/24 16:41:43;;;;;;;23.92;11.80;;;;;;;27.92;40.29;100192.59;1786136;80;27403;-68
2021/07/24 16:44:10;;;;;;;18.55;11.08;;;;;;;27.87;40.58;100193.08;1818418;78;25833;-67
2021/07/24 16:46:36;;;;;;;16.40;12.35;;;;;;;27.82;40.78;100193.59;1748411;80;25696;-67
2021/07/24 16:49:03;;;;;;;13.22;10.72;;;;;;;27.80;41.03;100186.27;1818355;78;26453;-67
2021/07/24 16:51:29;;;;;;;17.30;10.93;;;;;;;27.79;41.41;100195.83;1755575;80;25791;-68
2021/07/24 16:53:56;;;;;;;12.58;11.00;;;;;;;27.71;41.77;100185.45;1818424;78;27641;-67
2021/07/24 16:56:24;;;;;;;14.40;10.78;;;;;;;27.63;41.93;100191.59;1786041;80;25688;-67
2021/07/24 16:58:50;;;;;;;15.03;11.00;;;;;;;27.55;42.28;100197.31;1780371;78;26279;-68
2021/07/24 17:01:16;;;;;;;16.07;10.75;;;;;;;27.49;42.55;100196.84;1767031;81;25706;-68
2021/07/24 17:03:43;;;;;;;14.03;10.98;;;;;;;27.40;42.86;100194.64;1736576;81;25408;-68
2021/07/24 17:06:11;;;;;;;12.88;10.23;;;;;;;27.31;42.87;100195.80;1767022;81;28435;-67
2021/07/24 17:08:38;;;;;;;23.42;17.20;;;;;;;27.23;43.07;100187.42;1766431;81;25737;-67
2021/07/24 17:11:06;;;;;;;18.37;12.98;;;;;;;27.15;43.22;100191.70;1767062;81;25794;-69
2021/07/24 17:13:36;;;;;;;17.82;14.25;;;;;;;27.07;43.49;100194.42;1767254;81;26100;-69
2021/07/24 17:16:08;;;;;;;13.80;12.15;;;;;;;26.99;43.92;100190.23;1767087;81;26370;-69
2021/07/24 17:18:36;;;;;;;13.13;11.10;;;;;;;26.88;44.24;100189.02;1767014;81;27458;-67
2021/07/24 17:21:15;;;;;;;17.32;11.73;;;;;;;26.75;44.42;100181.92;1767212;81;25650;-68
2021/07/24 17:23:45;;;;;;;31.10;22.40;;;;;;;26.65;44.48;100182.89;1775687;79;25667;-66
2021/07/24 17:26:13;;;;;;;32.85;22.95;;;;;;;26.57;44.69;100185.57;1767192;81;26615;-67
2021/07/24 17:28:40;;;;;;;24.63;16.77;;;;;;;26.47;45.32;100178.38;1767248;81;25725;-65